VG24 weather

Mayers Airport
Ashland, Virginia, United States

Public forecast

Using degrees Fahrenheit for public forecast. Weather courtesy of forecast.io.

METAR (pilot weather report)

Closest report is Hanover County Municipal Airport, 5.1 nm (9.5 km) SSE. Retrieved 2019/06/20 22:54 UTC (57 minutes ago):

KOFP 202254Z AUTO 23008G16KT 10SM CLR 27/20 A2959 RMK AO2 SLP016 T02720200

TAF (pilot weather forecast)

Closest forecast is Richmond International Airport, 18.6 nm (34.4 km) SSE. Retrieved 2019/06/20 18:22 UTC (5 hours ago):

TAF KRIC 201720Z 2018/2118 23015G22KT P6SM SCT040 BKN100 FM202100 23014G22KT 4SM TSRA BKN025CB BKN080 FM202300 23012G19KT P6SM VCSH BKN100 FM210300 25010KT P6SM SCT150 FM211300 30015G23KT P6SM SCT070